createdAt,value
2023-04-16T00:00:47.058Z,9.83
2023-04-16T00:01:46.229Z,9.83
2023-04-16T00:02:46.243Z,9.81
2023-04-16T00:03:46.441Z,9.81
2023-04-16T00:04:46.123Z,9.75
2023-04-16T00:05:46.109Z,9.73
2023-04-16T00:06:46.088Z,9.73
2023-04-16T00:07:46.074Z,9.77
2023-04-16T00:08:46.112Z,9.75
2023-04-16T00:09:46.066Z,9.77
2023-04-16T00:10:46.037Z,9.78
2023-04-16T00:11:46.509Z,9.80
2023-04-16T00:12:46.101Z,9.81
2023-04-16T00:13:46.036Z,9.81
2023-04-16T00:14:46.018Z,9.80
2023-04-16T00:15:46.145Z,9.80
2023-04-16T00:16:46.114Z,9.81
2023-04-16T00:17:46.074Z,9.80
2023-04-16T00:18:45.970Z,9.77
2023-04-16T00:19:45.969Z,9.80
2023-04-16T00:20:45.979Z,9.80
2023-04-16T00:21:45.944Z,9.78
2023-04-16T00:22:46.169Z,9.80
2023-04-16T00:23:45.901Z,9.77
2023-04-16T00:24:45.907Z,9.78
2023-04-16T00:25:45.905Z,9.78
2023-04-16T00:26:46.005Z,9.81
2023-04-16T00:27:45.900Z,9.78
2023-04-16T00:28:45.878Z,9.78
2023-04-16T00:29:45.839Z,9.75
2023-04-16T00:30:45.851Z,9.75
2023-04-16T00:31:45.943Z,9.70
2023-04-16T00:32:45.912Z,9.66
2023-04-16T00:33:45.837Z,9.60
2023-04-16T00:34:45.815Z,9.63
2023-04-16T00:35:45.807Z,9.65
2023-04-16T00:36:45.786Z,9.67
2023-04-16T00:37:45.764Z,9.69
2023-04-16T00:38:45.800Z,9.70
2023-04-16T00:39:45.773Z,9.70
2023-04-16T00:40:45.785Z,9.69
2023-04-16T00:41:45.722Z,9.69
2023-04-16T00:42:45.819Z,9.66
2023-04-16T00:43:45.758Z,9.63
2023-04-16T00:44:45.699Z,9.66
2023-04-16T00:45:45.758Z,9.73
2023-04-16T00:46:45.751Z,9.72
2023-04-16T00:47:45.773Z,9.72
2023-04-16T00:48:45.683Z,9.75
2023-04-16T00:49:45.653Z,9.72
2023-04-16T00:50:45.646Z,9.73
2023-04-16T00:51:45.628Z,9.72
2023-04-16T00:52:45.683Z,9.75
2023-04-16T00:53:45.639Z,9.73
2023-04-16T00:54:45.602Z,9.75
2023-04-16T00:55:45.595Z,9.69
2023-04-16T00:56:45.608Z,9.77
2023-04-16T00:57:45.573Z,9.75
2023-04-16T00:58:45.594Z,9.75
2023-04-16T00:59:45.580Z,9.77
2023-04-16T01:00:45.530Z,9.77
2023-04-16T01:01:45.581Z,9.78
2023-04-16T01:02:45.588Z,9.77
2023-04-16T01:03:45.520Z,9.78
2023-04-16T01:04:45.521Z,9.80
2023-04-16T01:05:45.494Z,9.77
2023-04-16T01:06:45.539Z,9.80
2023-04-16T01:07:45.457Z,9.81
2023-04-16T01:08:45.477Z,9.78
2023-04-16T01:09:45.441Z,9.80
2023-04-16T01:10:45.466Z,9.83
2023-04-16T01:11:45.416Z,9.84
2023-04-16T01:12:45.418Z,9.84
2023-04-16T01:13:45.449Z,9.85
2023-04-16T01:14:45.380Z,9.78
2023-04-16T01:15:45.448Z,9.80
2023-04-16T01:16:45.505Z,9.83
2023-04-16T01:17:45.410Z,9.84
2023-04-16T01:18:45.347Z,9.85
2023-04-16T01:19:45.373Z,9.87
2023-04-16T01:20:45.380Z,9.87
2023-04-16T01:21:45.331Z,9.90
2023-04-16T01:22:45.338Z,9.91
2023-04-16T01:23:45.338Z,9.88
2023-04-16T01:24:45.352Z,9.88
2023-04-16T01:25:45.290Z,9.88
2023-04-16T01:26:45.304Z,9.88
2023-04-16T01:27:45.495Z,9.87
2023-04-16T01:28:45.290Z,9.83
2023-04-16T01:29:45.237Z,9.85
2023-04-16T01:30:45.266Z,9.84
2023-04-16T01:31:45.293Z,9.77
2023-04-16T01:32:45.249Z,9.75
2023-04-16T01:33:45.208Z,9.75
2023-04-16T01:34:45.207Z,9.77
2023-04-16T01:35:45.122Z,9.75
2023-04-16T01:36:45.168Z,9.77
2023-04-16T01:37:45.247Z,9.75
2023-04-16T01:38:45.187Z,9.77
2023-04-16T01:39:45.139Z,9.77
2023-04-16T01:40:45.136Z,9.84
2023-04-16T01:41:45.126Z,9.77
2023-04-16T01:42:45.094Z,9.75
2023-04-16T01:43:45.130Z,9.78
2023-04-16T01:44:45.074Z,9.73
2023-04-16T01:45:45.074Z,9.73
2023-04-16T01:46:45.091Z,9.73
2023-04-16T01:47:45.107Z,9.72
2023-04-16T01:48:45.169Z,9.73
2023-04-16T01:49:45.101Z,9.73
2023-04-16T01:50:45.013Z,9.75
2023-04-16T01:51:45.033Z,9.78
2023-04-16T01:52:45.027Z,9.83
2023-04-16T01:53:45.031Z,9.83
2023-04-16T01:54:45.032Z,9.85
2023-04-16T01:55:44.990Z,9.84
2023-04-16T01:56:45.009Z,9.85
2023-04-16T01:57:44.953Z,9.87
2023-04-16T01:58:44.968Z,9.81
2023-04-16T01:59:44.928Z,9.80
2023-04-16T02:00:44.967Z,9.81
2023-04-16T02:01:44.981Z,9.87
2023-04-16T02:02:45.105Z,9.90
2023-04-16T02:03:45.104Z,9.90
2023-04-16T02:04:44.991Z,9.84
2023-04-16T02:05:44.902Z,9.83
2023-04-16T02:06:44.895Z,9.80
2023-04-16T02:07:44.945Z,9.75
2023-04-16T02:08:44.834Z,9.75
2023-04-16T02:09:44.838Z,9.75
2023-04-16T02:10:44.840Z,9.77
2023-04-16T02:11:44.837Z,9.78
2023-04-16T02:12:44.800Z,9.73
2023-04-16T02:13:44.805Z,9.72
2023-04-16T02:14:44.781Z,9.72
2023-04-16T02:15:44.781Z,9.72
2023-04-16T02:16:44.820Z,9.72
2023-04-16T02:17:44.776Z,9.75
2023-04-16T02:18:44.798Z,9.80
2023-04-16T02:19:44.728Z,9.80
2023-04-16T02:20:44.747Z,9.90
2023-04-16T02:21:44.704Z,9.91
2023-04-16T02:22:44.718Z,9.85
2023-04-16T02:23:44.730Z,9.84
2023-04-16T02:24:44.701Z,9.80
2023-04-16T02:25:44.703Z,9.75
2023-04-16T02:26:44.644Z,9.70
2023-04-16T02:27:44.697Z,9.72
2023-04-16T02:28:44.620Z,9.73
2023-04-16T02:29:44.624Z,9.73
2023-04-16T02:30:44.679Z,9.73
2023-04-16T02:31:44.708Z,9.80
2023-04-16T02:32:44.738Z,9.80
2023-04-16T02:33:44.621Z,9.78
2023-04-16T02:34:44.563Z,9.83
2023-04-16T02:35:44.568Z,9.80
2023-04-16T02:36:44.620Z,9.75
2023-04-16T02:37:44.578Z,9.75
2023-04-16T02:38:44.567Z,9.72
2023-04-16T02:39:44.610Z,9.77
2023-04-16T02:40:44.522Z,9.78
2023-04-16T02:41:44.785Z,9.85
2023-04-16T02:42:44.538Z,9.85
2023-04-16T02:43:44.499Z,9.87
2023-04-16T02:44:44.494Z,9.83
2023-04-16T02:45:44.611Z,9.75
2023-04-16T02:46:44.463Z,9.67
2023-04-16T02:47:44.507Z,9.67
2023-04-16T02:48:44.444Z,9.69
2023-04-16T02:49:44.520Z,9.65
2023-04-16T02:50:44.407Z,9.62
2023-04-16T02:51:44.454Z,9.66
2023-04-16T02:52:44.415Z,9.63
2023-04-16T02:53:44.527Z,9.66
2023-04-16T02:54:44.377Z,9.69
2023-04-16T02:55:44.395Z,9.75
2023-04-16T02:56:44.377Z,9.78
2023-04-16T02:57:44.355Z,9.87
2023-04-16T02:58:45.106Z,9.88
2023-04-16T02:59:44.347Z,9.94
2023-04-16T03:00:44.311Z,9.96
2023-04-16T03:01:44.360Z,9.91
2023-04-16T03:02:45.057Z,9.85
2023-04-16T03:03:44.366Z,9.80
2023-04-16T03:04:44.340Z,9.77
2023-04-16T03:05:44.300Z,9.73
2023-04-16T03:06:44.273Z,9.77
2023-04-16T03:07:44.287Z,9.78
2023-04-16T03:08:44.603Z,9.83
2023-04-16T03:09:44.263Z,9.78
2023-04-16T03:10:44.333Z,9.75
2023-04-16T03:11:44.211Z,9.72
2023-04-16T03:12:44.208Z,9.72
2023-04-16T03:13:44.195Z,9.72
2023-04-16T03:14:44.600Z,9.75
2023-04-16T03:15:44.196Z,9.81
2023-04-16T03:16:44.271Z,9.85
2023-04-16T03:17:44.709Z,9.88
2023-04-16T03:18:44.148Z,9.90
2023-04-16T03:19:44.126Z,9.87
2023-04-16T03:20:44.201Z,9.85
2023-04-16T03:21:44.084Z,9.87
2023-04-16T03:22:44.097Z,9.87
2023-04-16T03:23:44.138Z,9.88
2023-04-16T03:24:44.069Z,9.90
2023-04-16T03:25:44.065Z,9.81
2023-04-16T03:26:44.084Z,9.78
2023-04-16T03:27:44.039Z,9.80
2023-04-16T03:28:44.028Z,9.80
2023-04-16T03:29:44.134Z,9.81
2023-04-16T03:30:44.516Z,9.81
2023-04-16T03:31:44.079Z,9.78
2023-04-16T03:32:44.000Z,9.81
2023-04-16T03:33:44.046Z,9.81
2023-04-16T03:34:43.987Z,9.83
2023-04-16T03:35:43.966Z,9.87
2023-04-16T03:36:44.191Z,9.94
2023-04-16T03:37:43.922Z,9.96
2023-04-16T03:38:43.980Z,9.96
2023-04-16T03:39:43.948Z,9.93
2023-04-16T03:40:43.943Z,9.93
2023-04-16T03:41:43.918Z,9.94
2023-04-16T03:42:43.887Z,9.88
2023-04-16T03:43:44.632Z,9.84
2023-04-16T03:44:43.849Z,9.75
2023-04-16T03:45:43.960Z,9.75
2023-04-16T03:46:43.877Z,9.77
2023-04-16T03:47:43.909Z,9.83
2023-04-16T03:48:43.846Z,9.81
2023-04-16T03:49:43.902Z,9.87
2023-04-16T03:50:44.009Z,9.87
2023-04-16T03:51:43.791Z,9.91
2023-04-16T03:52:43.785Z,9.96
2023-04-16T03:53:43.803Z,9.94
2023-04-16T03:54:43.767Z,10.01
2023-04-16T03:55:43.756Z,10.02
2023-04-16T03:56:43.787Z,10.08
2023-04-16T03:57:43.719Z,10.09
2023-04-16T03:58:43.761Z,10.09
2023-04-16T03:59:43.746Z,10.05
2023-04-16T04:00:43.723Z,10.02
2023-04-16T04:01:43.736Z,9.93
2023-04-16T04:02:43.915Z,9.93
2023-04-16T04:03:44.003Z,9.91
2023-04-16T04:04:43.720Z,9.90
2023-04-16T04:05:43.646Z,9.91
2023-04-16T04:06:44.388Z,9.98
2023-04-16T04:07:43.667Z,10.02
2023-04-16T04:08:43.640Z,10.03
2023-04-16T04:09:43.594Z,10.03
2023-04-16T04:10:43.585Z,10.02
2023-04-16T04:11:43.645Z,10.02
2023-04-16T04:12:43.598Z,10.03
2023-04-16T04:13:43.612Z,10.02
2023-04-16T04:14:43.489Z,10.03
2023-04-16T04:15:43.489Z,10.02
2023-04-16T04:16:43.648Z,9.96
2023-04-16T04:17:43.503Z,10.01
2023-04-16T04:18:44.554Z,9.99
2023-04-16T04:19:54.236Z,9.91
2023-04-16T04:20:43.643Z,9.87
2023-04-16T04:21:43.474Z,9.85
2023-04-16T04:22:43.405Z,9.85
2023-04-16T04:23:43.455Z,9.85
2023-04-16T04:24:43.385Z,9.87
2023-04-16T04:25:43.423Z,9.87
2023-04-16T04:26:43.404Z,9.90
2023-04-16T04:27:43.379Z,9.93
2023-04-16T04:28:43.345Z,9.91
2023-04-16T04:29:43.334Z,9.91
2023-04-16T04:30:43.387Z,9.91
2023-04-16T04:31:44.039Z,9.93
2023-04-16T04:32:43.364Z,9.94
2023-04-16T04:33:43.326Z,9.94
2023-04-16T04:34:43.360Z,9.94
2023-04-16T04:35:43.288Z,9.96
2023-04-16T04:36:43.296Z,10.01
2023-04-16T04:37:43.300Z,10.03
2023-04-16T04:38:43.674Z,10.02
2023-04-16T04:39:43.252Z,9.99
2023-04-16T04:40:43.600Z,10.01
2023-04-16T04:41:43.216Z,10.01
2023-04-16T04:42:43.230Z,10.05
2023-04-16T04:43:43.211Z,10.06
2023-04-16T04:44:43.218Z,10.05
2023-04-16T04:45:43.229Z,10.05
2023-04-16T04:46:43.192Z,10.03
2023-04-16T04:47:43.573Z,10.02
2023-04-16T04:48:43.121Z,10.01
2023-04-16T04:49:43.186Z,10.01
2023-04-16T04:50:43.133Z,9.94
2023-04-16T04:51:43.138Z,9.90
2023-04-16T04:52:43.159Z,9.88
2023-04-16T04:53:43.262Z,9.84
2023-04-16T04:54:43.101Z,9.87
2023-04-16T04:55:43.079Z,9.85
2023-04-16T04:56:43.132Z,9.84
2023-04-16T04:57:43.090Z,9.83
2023-04-16T04:58:43.124Z,9.80
2023-04-16T04:59:43.114Z,9.78
2023-04-16T05:00:43.038Z,9.80
2023-04-16T05:01:43.016Z,9.85
2023-04-16T05:02:43.134Z,9.87
2023-04-16T05:03:43.194Z,9.87
2023-04-16T05:04:43.169Z,9.90
2023-04-16T05:05:42.960Z,9.91
2023-04-16T05:06:43.104Z,9.88
2023-04-16T05:07:42.972Z,9.90
2023-04-16T05:08:42.976Z,9.88
2023-04-16T05:09:43.011Z,9.85
2023-04-16T05:10:42.952Z,9.85
2023-04-16T05:11:42.915Z,9.83
2023-04-16T05:12:42.977Z,9.83
2023-04-16T05:13:42.886Z,9.80
2023-04-16T05:14:42.918Z,9.78
2023-04-16T05:15:43.002Z,9.77
2023-04-16T05:16:42.930Z,9.83
2023-04-16T05:17:42.962Z,9.78
2023-04-16T05:18:42.839Z,9.80
2023-04-16T05:19:43.052Z,9.78
2023-04-16T05:20:42.832Z,9.81
2023-04-16T05:21:42.866Z,9.85
2023-04-16T05:22:42.842Z,9.81
2023-04-16T05:23:43.183Z,9.84
2023-04-16T05:24:42.857Z,9.85
2023-04-16T05:25:42.794Z,9.85
2023-04-16T05:26:42.787Z,9.84
2023-04-16T05:27:42.739Z,9.81
2023-04-16T05:28:42.841Z,9.83
2023-04-16T05:29:42.762Z,9.83
2023-04-16T05:30:42.820Z,9.84
2023-04-16T05:31:42.908Z,9.84
2023-04-16T05:32:42.721Z,9.83
2023-04-16T05:33:42.730Z,9.83
2023-04-16T05:34:42.824Z,9.83
2023-04-16T05:35:42.648Z,9.78
2023-04-16T05:36:42.692Z,9.77
2023-04-16T05:37:42.653Z,9.72
2023-04-16T05:38:42.638Z,9.78
2023-04-16T05:39:42.681Z,9.75
2023-04-16T05:40:42.772Z,9.80
2023-04-16T05:41:42.646Z,9.77
2023-04-16T05:42:42.601Z,9.77
2023-04-16T05:43:42.600Z,9.78
2023-04-16T05:44:42.623Z,9.80
2023-04-16T05:45:42.564Z,9.81
2023-04-16T05:46:42.588Z,9.77
2023-04-16T05:47:42.605Z,9.78
2023-04-16T05:48:42.525Z,9.80
2023-04-16T05:49:42.570Z,9.80
2023-04-16T05:50:42.594Z,9.81
2023-04-16T05:51:42.529Z,9.77
2023-04-16T05:52:42.503Z,9.78
2023-04-16T05:53:42.645Z,9.78
2023-04-16T05:54:42.526Z,9.81
2023-04-16T05:55:42.467Z,9.77
2023-04-16T05:56:42.629Z,9.80
2023-04-16T05:57:42.630Z,9.77
2023-04-16T05:58:42.416Z,9.78
2023-04-16T05:59:42.470Z,9.77
2023-04-16T06:00:42.414Z,9.70
2023-04-16T06:01:42.383Z,9.73
2023-04-16T06:02:42.622Z,9.77
2023-04-16T06:03:42.437Z,9.77
2023-04-16T06:04:42.480Z,9.84
2023-04-16T06:05:42.476Z,9.90
2023-04-16T06:06:42.388Z,9.90
2023-04-16T06:07:42.335Z,9.88
2023-04-16T06:08:43.024Z,9.94
2023-04-16T06:09:42.592Z,9.93
2023-04-16T06:10:42.307Z,9.93
2023-04-16T06:11:42.314Z,9.90
2023-04-16T06:12:42.312Z,9.83
2023-04-16T06:13:42.310Z,9.77
2023-04-16T06:14:42.338Z,9.78
2023-04-16T06:15:42.366Z,9.81
2023-04-16T06:16:42.356Z,9.84
2023-04-16T06:17:42.415Z,9.88
2023-04-16T06:18:42.267Z,9.91
2023-04-16T06:19:42.321Z,9.99
2023-04-16T06:20:42.238Z,9.99
2023-04-16T06:21:42.215Z,9.96
2023-04-16T06:22:42.188Z,9.93
2023-04-16T06:23:42.175Z,9.90
2023-04-16T06:24:42.194Z,9.93
2023-04-16T06:25:42.138Z,9.93
2023-04-16T06:26:42.157Z,9.94
2023-04-16T06:27:42.377Z,9.90
2023-04-16T06:28:42.118Z,9.91
2023-04-16T06:29:42.128Z,9.98
2023-04-16T06:30:44.052Z,10.03
2023-04-16T06:31:42.248Z,10.05
2023-04-16T06:32:42.218Z,10.05
2023-04-16T06:33:42.082Z,10.05
2023-04-16T06:34:42.068Z,10.09
2023-04-16T06:35:42.275Z,10.09
2023-04-16T06:36:42.099Z,10.08
2023-04-16T06:37:42.037Z,10.05
2023-04-16T06:38:42.019Z,10.06
2023-04-16T06:39:42.048Z,10.08
2023-04-16T06:40:42.563Z,10.10
2023-04-16T06:41:42.000Z,10.05
2023-04-16T06:42:43.587Z,10.03
2023-04-16T06:43:41.963Z,10.05
2023-04-16T06:44:41.992Z,10.03
2023-04-16T06:45:41.955Z,10.03
2023-04-16T06:46:41.996Z,10.01
2023-04-16T06:47:41.979Z,9.94
2023-04-16T06:48:42.043Z,9.90
2023-04-16T06:49:41.962Z,9.84
2023-04-16T06:50:41.935Z,9.80
2023-04-16T06:51:41.870Z,9.80
2023-04-16T06:52:41.916Z,9.80
2023-04-16T06:53:41.982Z,9.77
2023-04-16T06:54:42.033Z,9.83
2023-04-16T06:55:42.518Z,9.88
2023-04-16T06:56:41.906Z,9.88
2023-04-16T06:57:41.912Z,9.90
2023-04-16T06:58:41.851Z,9.85
2023-04-16T06:59:43.407Z,9.85
2023-04-16T07:00:41.870Z,9.77
2023-04-16T07:01:41.782Z,9.75
2023-04-16T07:02:41.915Z,9.70
2023-04-16T07:03:42.773Z,9.69
2023-04-16T07:04:41.750Z,9.65
2023-04-16T07:05:41.811Z,9.67
2023-04-16T07:06:41.737Z,9.66
2023-04-16T07:07:41.764Z,9.67
2023-04-16T07:08:41.723Z,9.63
2023-04-16T07:09:41.700Z,9.66
2023-04-16T07:10:41.738Z,9.65
2023-04-16T07:11:41.713Z,9.65
2023-04-16T07:12:41.708Z,9.60
2023-04-16T07:13:41.648Z,9.63
2023-04-16T07:14:41.705Z,9.60
2023-04-16T07:15:41.642Z,9.62
2023-04-16T07:16:41.739Z,9.62
2023-04-16T07:17:41.693Z,9.63
2023-04-16T07:18:41.644Z,9.66
2023-04-16T07:19:41.702Z,9.67
2023-04-16T07:20:41.595Z,9.66
2023-04-16T07:21:41.579Z,9.65
2023-04-16T07:22:41.617Z,9.66
2023-04-16T07:23:41.568Z,9.67
2023-04-16T07:24:41.571Z,9.69
2023-04-16T07:25:41.580Z,9.66
2023-04-16T07:26:41.538Z,9.67
2023-04-16T07:27:41.647Z,9.65
2023-04-16T07:28:41.519Z,9.67
2023-04-16T07:29:41.614Z,9.67
2023-04-16T07:30:42.040Z,9.67
2023-04-16T07:31:41.556Z,9.70
2023-04-16T07:32:41.687Z,9.73
2023-04-16T07:33:41.503Z,9.77
2023-04-16T07:34:41.491Z,9.69
2023-04-16T07:35:41.440Z,9.66
2023-04-16T07:36:41.467Z,9.65
2023-04-16T07:37:41.412Z,9.66
2023-04-16T07:38:41.470Z,9.70
2023-04-16T07:39:41.409Z,9.77
2023-04-16T07:40:41.603Z,9.78
2023-04-16T07:41:41.406Z,9.81
2023-04-16T07:42:41.599Z,9.83
2023-04-16T07:43:41.380Z,9.87
2023-04-16T07:44:41.353Z,9.84
2023-04-16T07:45:41.509Z,9.84
2023-04-16T07:46:46.785Z,9.85
2023-04-16T07:47:41.434Z,9.87
2023-04-16T07:48:41.372Z,9.84
2023-04-16T07:49:41.324Z,9.81
2023-04-16T07:50:41.359Z,9.84
2023-04-16T07:51:41.687Z,9.83
2023-04-16T07:52:41.299Z,9.83
2023-04-16T07:53:41.280Z,9.84
2023-04-16T07:54:41.273Z,9.84
2023-04-16T07:55:41.271Z,9.88
2023-04-16T07:56:41.247Z,9.87
2023-04-16T07:57:41.250Z,9.94
2023-04-16T07:58:41.266Z,9.96
2023-04-16T07:59:41.235Z,9.94
2023-04-16T08:00:41.200Z,9.96
2023-04-16T08:01:41.226Z,9.94
2023-04-16T08:02:41.336Z,10.01
2023-04-16T08:03:41.531Z,9.96
2023-04-16T08:04:41.489Z,9.93
2023-04-16T08:05:41.168Z,9.94
2023-04-16T08:06:41.231Z,9.96
2023-04-16T08:07:41.151Z,9.98
2023-04-16T08:08:41.107Z,9.98
2023-04-16T08:09:41.109Z,9.99
2023-04-16T08:10:41.129Z,10.01
2023-04-16T08:11:41.085Z,9.94
2023-04-16T08:12:41.100Z,9.90
2023-04-16T08:13:41.049Z,9.91
2023-04-16T08:14:41.086Z,9.94
2023-04-16T08:15:41.085Z,10.01
2023-04-16T08:16:41.076Z,10.03
2023-04-16T08:17:41.133Z,10.03
2023-04-16T08:18:41.052Z,10.03
2023-04-16T08:19:40.999Z,10.05
2023-04-16T08:20:41.062Z,10.06
2023-04-16T08:21:40.996Z,10.09
2023-04-16T08:22:40.971Z,10.06
2023-04-16T08:23:41.221Z,10.05
2023-04-16T08:24:40.965Z,10.06
2023-04-16T08:25:40.959Z,10.06
2023-04-16T08:26:40.977Z,10.09
2023-04-16T08:27:41.587Z,10.08
2023-04-16T08:28:40.877Z,10.09
2023-04-16T08:29:40.952Z,10.10
2023-04-16T08:30:40.963Z,10.09
2023-04-16T08:31:40.907Z,10.06
2023-04-16T08:32:40.886Z,10.09
2023-04-16T08:33:40.873Z,10.09
2023-04-16T08:34:40.850Z,10.10
2023-04-16T08:35:40.868Z,10.14
2023-04-16T08:36:40.828Z,10.17
2023-04-16T08:37:40.801Z,10.18
2023-04-16T08:38:40.817Z,10.18
2023-04-16T08:39:40.842Z,10.12
2023-04-16T08:40:40.784Z,10.12
2023-04-16T08:41:40.793Z,10.08
2023-04-16T08:42:40.810Z,10.12
2023-04-16T08:43:40.798Z,10.17
2023-04-16T08:44:40.753Z,10.16
2023-04-16T08:45:40.734Z,10.18
2023-04-16T08:46:40.880Z,10.16
2023-04-16T08:47:41.157Z,10.18
2023-04-16T08:48:40.691Z,10.24
2023-04-16T08:49:40.700Z,10.26
2023-04-16T08:50:40.711Z,10.27
2023-04-16T08:51:40.696Z,10.30
2023-04-16T08:52:40.651Z,10.31
2023-04-16T08:53:40.743Z,10.36
2023-04-16T08:54:40.657Z,10.38
2023-04-16T08:55:40.663Z,10.39
2023-04-16T08:56:42.872Z,10.39
2023-04-16T08:57:40.646Z,10.42
2023-04-16T08:58:40.602Z,10.42
2023-04-16T08:59:40.636Z,10.42
2023-04-16T09:00:40.608Z,10.42
2023-04-16T09:01:40.613Z,10.41
2023-04-16T09:02:40.819Z,10.42
2023-04-16T09:03:40.739Z,10.46
2023-04-16T09:04:40.741Z,10.45
2023-04-16T09:05:40.601Z,10.43
2023-04-16T09:06:40.518Z,10.48
2023-04-16T09:07:40.491Z,10.55
2023-04-16T09:08:40.506Z,10.58
2023-04-16T09:09:40.503Z,10.55
2023-04-16T09:10:40.504Z,10.52
2023-04-16T09:11:40.519Z,10.52
2023-04-16T09:12:40.459Z,10.48
2023-04-16T09:13:40.542Z,10.49
2023-04-16T09:14:41.170Z,10.49
2023-04-16T09:15:40.540Z,10.49
2023-04-16T09:16:40.544Z,10.55
2023-04-16T09:17:40.481Z,10.61
2023-04-16T09:18:40.573Z,10.64
2023-04-16T09:19:40.402Z,10.65
2023-04-16T09:20:40.369Z,10.67
2023-04-16T09:21:40.552Z,10.70
2023-04-16T09:22:40.381Z,10.68
2023-04-16T09:23:40.418Z,10.68
2023-04-16T09:24:40.448Z,10.67
2023-04-16T09:25:40.464Z,10.67
2023-04-16T09:26:40.378Z,10.70
2023-04-16T09:27:40.377Z,10.78
2023-04-16T09:28:40.323Z,10.76
2023-04-16T09:29:40.282Z,10.79
2023-04-16T09:30:40.554Z,10.80
2023-04-16T09:31:40.313Z,10.80
2023-04-16T09:32:40.360Z,10.78
2023-04-16T09:33:40.300Z,10.73
2023-04-16T09:34:40.275Z,10.70
2023-04-16T09:35:40.535Z,10.70
2023-04-16T09:36:40.500Z,10.73
2023-04-16T09:37:41.167Z,10.79
2023-04-16T09:38:40.195Z,10.83
2023-04-16T09:39:40.165Z,10.87
2023-04-16T09:40:40.230Z,10.91
2023-04-16T09:41:40.132Z,10.95
2023-04-16T09:42:40.173Z,11.01
2023-04-16T09:43:40.123Z,10.95
2023-04-16T09:44:40.196Z,10.94
2023-04-16T09:45:40.164Z,10.97
2023-04-16T09:46:40.685Z,10.98
2023-04-16T09:47:40.160Z,11.03
2023-04-16T09:48:40.095Z,11.05
2023-04-16T09:49:40.205Z,11.11
2023-04-16T09:50:40.100Z,11.13
2023-04-16T09:51:40.934Z,11.15
2023-04-16T09:52:40.045Z,11.16
2023-04-16T09:53:40.030Z,11.15
2023-04-16T09:54:40.210Z,11.19
2023-04-16T09:55:40.098Z,11.19
2023-04-16T09:56:40.062Z,11.22
2023-04-16T09:57:39.976Z,11.25
2023-04-16T09:58:39.977Z,11.23
2023-04-16T09:59:40.011Z,11.23
2023-04-16T10:00:43.614Z,11.20
2023-04-16T10:01:40.036Z,11.23
2023-04-16T10:02:40.711Z,11.30
2023-04-16T10:03:40.426Z,11.27
2023-04-16T10:04:40.210Z,11.33
2023-04-16T10:05:39.929Z,11.30
2023-04-16T10:06:40.029Z,11.28
2023-04-16T10:07:39.882Z,11.27
2023-04-16T10:08:39.891Z,11.20
2023-04-16T10:09:39.893Z,11.19
2023-04-16T10:10:39.888Z,11.13
2023-04-16T10:11:39.852Z,11.18
2023-04-16T10:12:39.845Z,11.25
2023-04-16T10:13:39.853Z,11.30
2023-04-16T10:14:39.861Z,11.28
2023-04-16T10:15:39.868Z,11.27
2023-04-16T10:16:39.917Z,11.30
2023-04-16T10:17:39.946Z,11.37
2023-04-16T10:18:39.760Z,11.38
2023-04-16T10:19:39.783Z,11.45
2023-04-16T10:20:39.762Z,11.54
2023-04-16T10:21:39.824Z,11.55
2023-04-16T10:22:39.794Z,11.64
2023-04-16T10:23:39.755Z,11.70
2023-04-16T10:24:39.737Z,11.77
2023-04-16T10:25:39.824Z,11.76
2023-04-16T10:26:39.698Z,11.74
2023-04-16T10:27:39.782Z,11.77
2023-04-16T10:28:39.684Z,11.79
2023-04-16T10:29:39.729Z,11.84
2023-04-16T10:30:39.761Z,11.82
2023-04-16T10:31:39.682Z,11.73
2023-04-16T10:32:39.733Z,11.71
2023-04-16T10:33:39.635Z,11.77
2023-04-16T10:34:39.643Z,11.91
2023-04-16T10:35:39.621Z,11.95
2023-04-16T10:36:39.613Z,12.04
2023-04-16T10:37:40.196Z,12.05
2023-04-16T10:38:39.630Z,12.03
2023-04-16T10:39:39.580Z,12.07
2023-04-16T10:40:39.618Z,12.08
2023-04-16T10:41:39.598Z,12.05
2023-04-16T10:42:39.987Z,12.07
2023-04-16T10:43:39.565Z,12.10
2023-04-16T10:44:40.864Z,12.04
2023-04-16T10:45:39.533Z,12.03
2023-04-16T10:46:39.564Z,11.99
2023-04-16T10:47:39.527Z,11.89
2023-04-16T10:48:49.940Z,11.87
2023-04-16T10:49:39.472Z,11.89
2023-04-16T10:50:39.485Z,11.88
2023-04-16T10:51:39.508Z,11.93
2023-04-16T10:52:39.599Z,12.03
2023-04-16T10:53:39.432Z,11.93
2023-04-16T10:54:39.416Z,11.96
2023-04-16T10:55:39.441Z,12.00
2023-04-16T10:56:39.427Z,11.99
2023-04-16T10:57:39.382Z,11.93
2023-04-16T10:58:39.401Z,11.93
2023-04-16T10:59:39.374Z,11.84
2023-04-16T11:00:39.353Z,11.74
2023-04-16T11:01:39.482Z,11.71
2023-04-16T11:02:39.579Z,11.67
2023-04-16T11:03:39.512Z,11.67
2023-04-16T11:04:39.421Z,11.59
2023-04-16T11:05:39.312Z,11.56
2023-04-16T11:06:39.312Z,11.54
2023-04-16T11:07:39.312Z,11.54
2023-04-16T11:08:53.327Z,11.54
2023-04-16T11:09:39.287Z,11.55
2023-04-16T11:10:39.276Z,11.51
2023-04-16T11:11:39.300Z,11.46
2023-04-16T11:12:39.283Z,11.37
2023-04-16T11:13:39.229Z,11.36
2023-04-16T11:14:39.221Z,11.34
2023-04-16T11:15:39.294Z,11.31
2023-04-16T11:16:39.177Z,11.30
2023-04-16T11:17:39.423Z,11.27
2023-04-16T11:18:39.206Z,11.22
2023-04-16T11:19:39.196Z,11.19
2023-04-16T11:20:39.171Z,11.18
2023-04-16T11:21:39.185Z,11.13
2023-04-16T11:22:39.161Z,11.13
2023-04-16T11:23:39.138Z,11.12
2023-04-16T11:24:39.128Z,11.15
2023-04-16T11:25:39.128Z,11.12
2023-04-16T11:26:39.119Z,11.16
2023-04-16T11:27:39.071Z,11.16
2023-04-16T11:28:39.123Z,11.23
2023-04-16T11:29:39.094Z,11.23
2023-04-16T11:30:39.072Z,11.28
2023-04-16T11:31:39.225Z,11.34
2023-04-16T11:32:39.035Z,11.33
2023-04-16T11:33:39.076Z,11.34
2023-04-16T11:34:39.013Z,11.41
2023-04-16T11:35:39.058Z,11.43
2023-04-16T11:36:38.991Z,11.48
2023-04-16T11:37:39.012Z,11.48
2023-04-16T11:38:38.976Z,11.49
2023-04-16T11:39:38.952Z,11.49
2023-04-16T11:40:39.002Z,11.45
2023-04-16T11:41:38.965Z,11.45
2023-04-16T11:42:39.009Z,11.46
2023-04-16T11:43:38.922Z,11.45
2023-04-16T11:44:38.926Z,11.46
2023-04-16T11:45:38.957Z,11.48
2023-04-16T11:46:38.931Z,11.48
2023-04-16T11:47:39.085Z,11.49
2023-04-16T11:48:38.862Z,11.49
2023-04-16T11:49:38.878Z,11.54
2023-04-16T11:50:38.922Z,11.59
2023-04-16T11:51:38.824Z,11.62
2023-04-16T11:52:38.900Z,11.67
2023-04-16T11:53:38.855Z,11.66
2023-04-16T11:54:38.817Z,11.69
2023-04-16T11:55:38.824Z,11.69
2023-04-16T11:56:38.791Z,11.69
2023-04-16T11:57:38.846Z,11.67
2023-04-16T11:58:38.782Z,11.67
2023-04-16T12:00:01.362Z,11.71
2023-04-16T12:00:38.747Z,11.73
2023-04-16T12:01:38.743Z,11.79
2023-04-16T12:02:38.902Z,11.84
2023-04-16T12:03:38.961Z,11.82
2023-04-16T12:04:38.840Z,11.84
2023-04-16T12:05:38.865Z,11.87
2023-04-16T12:06:38.702Z,11.85
2023-04-16T12:07:38.689Z,11.89
2023-04-16T12:08:38.677Z,11.89
2023-04-16T12:09:40.581Z,11.93
2023-04-16T12:10:38.660Z,11.95
2023-04-16T12:11:38.647Z,12.00
2023-04-16T12:12:38.700Z,12.03
2023-04-16T12:13:38.631Z,12.05
2023-04-16T12:14:38.637Z,12.08
2023-04-16T12:15:38.600Z,12.13
2023-04-16T12:16:38.635Z,12.13
2023-04-16T12:17:38.671Z,12.17
2023-04-16T12:18:38.596Z,12.21
2023-04-16T12:19:38.584Z,12.21
2023-04-16T12:20:38.531Z,12.17
2023-04-16T12:21:38.590Z,12.21
2023-04-16T12:22:38.561Z,12.25
2023-04-16T12:23:38.557Z,12.28
2023-04-16T12:24:38.523Z,12.28
2023-04-16T12:25:38.496Z,12.25
2023-04-16T12:26:38.497Z,12.23
2023-04-16T12:27:38.464Z,12.22
2023-04-16T12:28:38.571Z,12.23
2023-04-16T12:29:38.472Z,12.21
2023-04-16T12:30:38.504Z,12.21
2023-04-16T12:31:38.479Z,12.25
2023-04-16T12:32:38.706Z,12.28
2023-04-16T12:33:38.470Z,12.30
2023-04-16T12:34:48.556Z,12.30
2023-04-16T12:35:38.406Z,12.30
2023-04-16T12:36:38.377Z,12.33
2023-04-16T12:37:38.385Z,12.40
2023-04-16T12:38:38.365Z,12.44
2023-04-16T12:39:38.393Z,12.48
2023-04-16T12:40:38.397Z,12.50
2023-04-16T12:41:38.330Z,12.54
2023-04-16T12:42:38.344Z,12.54
2023-04-16T12:43:38.355Z,12.55
2023-04-16T12:44:38.338Z,12.63
2023-04-16T12:45:38.341Z,12.65
2023-04-16T12:46:38.386Z,12.71
2023-04-16T12:47:38.343Z,12.77
2023-04-16T12:48:38.294Z,12.76
2023-04-16T12:49:38.382Z,12.73
2023-04-16T12:50:38.261Z,12.76
2023-04-16T12:51:38.282Z,12.79
2023-04-16T12:52:38.234Z,12.80
2023-04-16T12:53:38.210Z,12.88
2023-04-16T12:54:38.228Z,12.91
2023-04-16T12:55:38.207Z,12.98
2023-04-16T12:56:38.182Z,13.04
2023-04-16T12:57:38.196Z,13.09
2023-04-16T12:58:38.163Z,13.13
2023-04-16T12:59:38.157Z,13.09
2023-04-16T13:00:38.142Z,13.11
2023-04-16T13:01:38.235Z,13.13
2023-04-16T13:02:38.301Z,13.16
2023-04-16T13:03:38.207Z,13.23
2023-04-16T13:04:38.242Z,13.30
2023-04-16T13:05:38.139Z,13.35
2023-04-16T13:06:38.106Z,13.35
2023-04-16T13:07:38.099Z,13.39